This is the latest recevied weather packets stored in our database for station/object K2ATL. If no packets are shown the sender has not sent any weather packets the latest 10 day(s).
| Time | Temp. | Humidity | Pressure | Rain* | Wind** | Luminosity | Snow |
|---|---|---|---|---|---|---|---|
| 1787862469 | 19.44° C | 98% | 1101.2 hPa | 0 mm | - | 172 W/m² | - |
| 1787862164 | 20.56° C | 98% | 1101.1 hPa | 6.1 mm | - | 65 W/m² | - |
| 1787861859 | 20.56° C | 98% | 1101.4 hPa | 11.94 mm | - | 57 W/m² | - |
| 1787861558 | 20.56° C | 97% | 1101.2 hPa | 7.87 mm | - | 46 W/m² | - |
| 1787861253 | 21.11° C | 96% | 1101.2 hPa | 6.1 mm | - | 54 W/m² | - |
| 1787860952 | 21.11° C | 95% | 1101.2 hPa | 13.72 mm | - | 128 W/m² | - |
| 1787860647 | 22.78° C | 92% | 1101.2 hPa | 9.65 mm | - | 54 W/m² | - |
| 1787860342 | 23.33° C | 87% | 1101.4 hPa | 0 mm | - | 69 W/m² | - |
| 1787860037 | 23.33° C | 86% | 1101.5 hPa | 0 mm | - | 92 W/m² | - |
| 1787859732 | 23.89° C | 88% | 1101.5 hPa | 0 mm | - | 93 W/m² | - |
| 1787859427 | 24.44° C | 85% | 1101.5 hPa | 0 mm | - | 70 W/m² | - |
| 1787859122 | 24.44° C | 88% | 1101.5 hPa | 0 mm | - | 53 W/m² | - |
| 1787858818 | 25° C | 84% | 1101.4 hPa | 0 mm | - | 68 W/m² | - |
| 1787858514 | 25.56° C | 83% | 1101.4 hPa | 0 mm | - | 48 W/m² | - |
| 1787858213 | 25.56° C | 81% | 1101.5 hPa | 0 mm | - | 85 W/m² | - |
| 1787857909 | 26.11° C | 78% | 1101.6 hPa | 0 mm | - | 103 W/m² | - |
| 1787857605 | 25° C | 77% | 1101.7 hPa | 0 mm | - | 178 W/m² | - |
| 1787857304 | 25° C | 79% | 1101.9 hPa | 0 mm | - | 147 W/m² | - |
| 1787857003 | 25° C | 82% | 1101.5 hPa | 0 mm | - | 138 W/m² | - |
| 1787856703 | 25.56° C | 83% | 1101.8 hPa | 0 mm | - | 144 W/m² | - |
| 1787856397 | 26.67° C | 81% | 1101.7 hPa | 0 mm | - | 186 W/m² | - |
| 1787856092 | 24.44° C | 85% | 1101.8 hPa | 0 mm | - | 900 W/m² | - |
| 1787855787 | 22.78° C | 86% | 1101.7 hPa | 0 mm | - | 920 W/m² | - |
| 1787855483 | 26.11° C | 84% | 1101.7 hPa | 0 mm | - | 111 W/m² | - |
| 1787855178 | 27.22° C | 79% | 1101.8 hPa | 0 mm | - | 167 W/m² | - |
* Rain latest hour (hover to see other rain measurements)
** Current wind speed in m/s (hover to see current wind gust speed)